Time;durP1;ratioP1;P1;durP2;ratioP2;P2;SDS_P1;SDS_P2;PMS_P1;PMS_P2;Temp;Humidity;BMP_temperature;BMP_pressure;BME280_temperature;BME280_humidity;BME280_pressure;Samples;Min_cycle;Max_cycle;Signal;HPM_P1;HPM_P2
2022/11/02 00:00:55;;;;;;;12.23;4.78;;;;;;;8.26;100.00;93200.09;4849067;29;20038;-78
2022/11/02 00:03:21;;;;;;;19.70;5.07;;;;;;;8.27;100.00;93211.31;4848444;29;20037;-78
2022/11/02 00:09:40;;;;;;;22.35;5.35;;;;;;;8.23;100.00;93205.00;4850069;29;20037;-79
2022/11/02 00:12:06;;;;;;;17.65;6.00;;;;;;;8.21;100.00;93209.69;4848557;29;20041;-79
2022/11/02 00:14:32;;;;;;;25.40;6.15;;;;;;;8.19;100.00;93211.78;4849383;29;20030;-79
2022/11/02 00:16:57;;;;;;;17.08;5.00;;;;;;;8.18;100.00;93215.44;4833043;29;20057;-78
2022/11/02 00:19:24;;;;;;;18.73;5.60;;;;;;;8.16;100.00;93212.28;4847297;29;20034;-78
2022/11/02 00:21:49;;;;;;;21.70;5.53;;;;;;;8.19;100.00;93217.00;4848927;29;20079;-79
2022/11/02 00:24:15;;;;;;;24.33;5.35;;;;;;;8.19;100.00;93211.78;4832720;29;20424;-78
2022/11/02 00:27:01;;;;;;;15.75;5.68;;;;;;;8.21;100.00;93215.69;4847686;29;20496;-79
2022/11/02 00:29:27;;;;;;;22.95;5.40;;;;;;;8.23;100.00;93218.84;4847813;29;20046;-79
2022/11/02 00:31:53;;;;;;;12.82;4.95;;;;;;;8.23;100.00;93218.06;4848884;29;20041;-79
2022/11/02 00:34:18;;;;;;;18.83;4.97;;;;;;;8.25;100.00;93221.19;4862603;29;20416;-78
2022/11/02 00:36:44;;;;;;;22.52;5.45;;;;;;;8.25;100.00;93216.75;4864878;29;20045;-79
2022/11/02 00:39:09;;;;;;;20.08;5.22;;;;;;;8.24;100.00;93212.59;4867418;29;20038;-79
2022/11/02 00:42:15;;;;;;;17.95;4.95;;;;;;;8.21;100.00;93215.69;4868027;29;20080;-78
2022/11/02 00:44:41;;;;;;;19.38;4.72;;;;;;;8.19;100.00;93217.00;4881658;29;20063;-79
2022/11/02 00:47:07;;;;;;;21.27;5.80;;;;;;;8.21;100.00;93215.69;4882053;29;20025;-79
2022/11/02 00:50:10;;;;;;;20.27;4.88;;;;;;;8.20;100.00;93213.34;4867546;29;20407;-79
2022/11/02 00:52:39;;;;;;;13.27;4.13;;;;;;;8.16;100.00;93212.28;4880843;29;20049;-79
2022/11/02 00:55:07;;;;;;;19.95;4.88;;;;;;;8.16;100.00;93212.28;4867449;29;20038;-80
2022/11/02 00:57:54;;;;;;;16.45;4.75;;;;;;;8.13;100.00;93219.56;4883679;29;20127;-79
2022/11/02 01:00:20;;;;;;;15.60;4.43;;;;;;;8.10;100.00;93209.63;4884450;29;20044;-79
2022/11/02 01:02:46;;;;;;;18.38;4.82;;;;;;;8.06;100.00;93213.00;4857964;29;20045;-79
2022/11/02 01:05:14;;;;;;;15.57;4.90;;;;;;;8.03;100.00;93209.06;4874539;29;20119;-79
2022/11/02 01:07:40;;;;;;;21.15;5.00;;;;;;;8.02;100.00;93209.34;4874838;29;20049;-79
2022/11/02 01:10:08;;;;;;;19.95;5.95;;;;;;;8.00;100.00;93209.59;4878205;29;20727;-78
2022/11/02 01:12:37;;;;;;;22.98;5.25;;;;;;;8.02;100.00;93211.97;4881784;29;20025;-79
2022/11/02 01:15:21;;;;;;;14.00;5.30;;;;;;;8.02;100.00;93204.91;4866269;29;20487;-79
2022/11/02 01:17:46;;;;;;;12.95;4.93;;;;;;;8.01;100.00;93205.94;4866486;29;20125;-79
2022/11/02 01:20:12;;;;;;;13.50;5.45;;;;;;;7.98;100.00;93203.06;4867065;29;20499;-78
2022/11/02 01:26:04;;;;;;;23.50;5.22;;;;;;;7.98;100.00;93198.63;4848809;29;20098;-78
2022/11/02 01:28:31;;;;;;;20.05;5.50;;;;;;;8.01;100.00;93210.38;4862329;29;20041;-79
2022/11/02 01:38:44;;;;;;;19.15;4.95;;;;;;;7.99;100.00;93196.78;4848466;29;20162;-79
2022/11/02 01:44:38;;;;;;;13.40;4.15;;;;;;;7.93;100.00;93198.59;4879959;29;20096;-79
2022/11/02 01:50:48;;;;;;;18.75;4.63;;;;;;;7.90;100.00;93192.06;4885344;29;20096;-78
2022/11/02 01:53:13;;;;;;;14.23;4.75;;;;;;;7.89;100.00;93194.94;4873940;29;20052;-79
2022/11/02 01:55:39;;;;;;;22.35;5.93;;;;;;;7.87;100.00;93191.78;4880462;29;20049;-79
2022/11/02 01:58:10;;;;;;;19.98;4.85;;;;;;;7.86;100.00;93192.84;4880299;29;20049;-78
2022/11/02 02:00:37;;;;;;;17.50;4.90;;;;;;;7.86;100.00;93190.22;4880575;29;20124;-79
2022/11/02 02:03:17;;;;;;;14.82;4.82;;;;;;;7.82;100.00;93182.13;4882902;29;20064;-79
2022/11/02 02:05:51;;;;;;;17.90;5.22;;;;;;;7.83;100.00;93190.72;4860431;29;20042;-79
2022/11/02 02:08:20;;;;;;;13.75;4.53;;;;;;;7.84;100.00;93192.28;4874465;29;20404;-78
2022/11/02 02:14:40;;;;;;;16.30;4.93;;;;;;;7.77;100.00;93183.88;4865845;29;20487;-79
2022/11/02 02:35:40;;;;;;;17.27;4.55;;;;;;;7.80;100.00;93183.41;4862478;29;20046;-79
2022/11/02 02:38:09;;;;;;;;;;;;;;;7.80;100.00;93183.41;4865194;29;20056;-80
2022/11/02 02:41:01;;;;;;;16.65;4.05;;;;;;;7.77;100.00;93189.91;4865841;29;19916;-81
2022/11/02 02:46:59;;;;;;;10.90;4.10;;;;;;;7.77;100.00;93183.88;4863441;29;20463;-79
2022/11/02 02:49:32;;;;;;;11.00;3.92;;;;;;;7.76;100.00;93179.72;4864766;29;20046;-80
2022/11/02 02:55:12;;;;;;;16.10;4.25;;;;;;;7.77;100.00;93173.47;4864467;29;20128;-80
2022/11/02 02:57:38;;;;;;;11.80;4.25;;;;;;;7.76;100.00;93174.50;4851513;29;20046;-80
2022/11/02 03:00:24;;;;;;;17.25;4.53;;;;;;;7.75;100.00;93172.94;4875960;29;20125;-80
2022/11/02 03:10:14;;;;;;;15.77;4.60;;;;;;;7.65;100.00;93161.41;4846960;29;20113;-80
2022/11/02 03:12:55;;;;;;;18.77;4.68;;;;;;;7.62;100.00;93163.75;4846917;29;20385;-79
2022/11/02 03:18:32;;;;;;;18.92;4.15;;;;;;;7.57;100.00;93163.72;4863142;29;20140;-80
2022/11/02 03:21:39;;;;;;;18.10;4.20;;;;;;;7.56;100.00;93162.13;4864133;29;20049;-79
2022/11/02 03:24:14;;;;;;;13.40;4.18;;;;;;;7.54;100.00;93164.97;4843788;29;20091;-80
2022/11/02 03:27:12;;;;;;;20.10;5.15;;;;;;;7.49;100.00;93157.13;4844033;29;20044;-79
2022/11/02 03:37:02;;;;;;;13.55;3.72;;;;;;;7.53;100.00;93166.03;4844975;29;20057;-80
2022/11/02 03:39:45;;;;;;;16.02;4.28;;;;;;;7.52;100.00;93172.28;4846262;29;20044;-80
2022/11/02 03:42:16;;;;;;;14.35;4.47;;;;;;;7.52;100.00;93174.88;4844875;29;20068;-80
2022/11/02 03:44:46;;;;;;;15.43;4.20;;;;;;;7.48;100.00;93176.41;4844820;29;20041;-80
2022/11/02 03:51:10;;;;;;;14.20;4.47;;;;;;;7.46;100.00;93178.47;4847216;29;20044;-80
2022/11/02 03:54:14;;;;;;;18.15;4.60;;;;;;;7.48;100.00;93177.19;4861115;29;20163;-79
2022/11/02 03:56:44;;;;;;;14.45;4.50;;;;;;;7.47;100.00;93178.22;4846471;29;20064;-79
2022/11/02 03:59:12;;;;;;;12.55;4.63;;;;;;;7.45;100.00;93179.50;4861104;29;20489;-80
2022/11/02 04:05:34;;;;;;;15.20;4.55;;;;;;;7.44;100.00;93180.56;4846178;29;20090;-80
2022/11/02 04:08:40;;;;;;;21.35;4.47;;;;;;;7.47;100.00;93187.84;4845932;29;20037;-80
2022/11/02 04:16:43;;;;;;;12.20;4.80;;;;;;;7.45;100.00;93182.09;4858070;29;20050;-79
2022/11/02 04:19:27;;;;;;;17.05;4.50;;;;;;;7.45;100.00;93182.09;4858423;29;20030;-80
2022/11/02 04:25:18;;;;;;;15.45;4.53;;;;;;;7.45;100.00;93180.31;4864757;29;20173;-80
2022/11/02 04:31:31;;;;;;;15.93;4.57;;;;;;;7.45;100.00;93187.31;4860225;29;20442;-80
2022/11/02 04:33:58;;;;;;;17.08;4.80;;;;;;;7.46;100.00;93188.91;4856115;29;20038;-80
2022/11/02 04:36:28;;;;;;;12.40;3.90;;;;;;;7.45;100.00;93184.72;4849746;29;20053;-79
2022/11/02 04:39:16;;;;;;;15.35;4.07;;;;;;;7.46;100.00;93183.69;4882036;29;20061;-80
2022/11/02 04:41:41;;;;;;;16.35;4.00;;;;;;;7.45;100.00;93182.91;4869303;29;20041;-80
2022/11/02 04:44:26;;;;;;;17.40;5.10;;;;;;;7.47;100.00;93186.03;4867748;29;20093;-80
2022/11/02 04:47:10;;;;;;;16.65;4.10;;;;;;;7.47;100.00;93180.81;4867634;29;20484;-80
2022/11/02 04:49:56;;;;;;;15.57;4.25;;;;;;;7.51;100.00;93186.31;4866697;29;20140;-80
2022/11/02 04:52:22;;;;;;;22.85;11.35;;;;;;;7.49;100.00;93177.97;4863831;29;20412;-79
2022/11/02 04:54:50;;;;;;;13.68;5.40;;;;;;;7.51;100.00;93176.69;4847837;29;20045;-80
2022/11/02 04:57:18;;;;;;;12.32;4.50;;;;;;;7.52;100.00;93174.88;4863667;29;20098;-80
2022/11/02 04:59:44;;;;;;;19.33;4.25;;;;;;;7.47;100.00;93175.59;4863064;29;20205;-79
2022/11/02 05:02:09;;;;;;;15.13;4.50;;;;;;;7.45;100.00;93169.88;4863144;29;20564;-80
2022/11/02 05:08:28;;;;;;;14.82;4.00;;;;;;;7.47;100.00;93174.84;4849085;29;20392;-80
2022/11/02 05:14:26;;;;;;;14.38;4.40;;;;;;;7.49;100.00;93173.53;4862775;29;20129;-79
2022/11/02 05:16:52;;;;;;;12.88;4.63;;;;;;;7.50;100.00;93163.94;4848868;29;20179;-80
2022/11/02 05:19:56;;;;;;;16.08;4.40;;;;;;;7.48;100.00;93166.00;4847763;29;20033;-80
2022/11/02 05:22:21;;;;;;;18.90;4.45;;;;;;;7.48;100.00;93160.78;4848541;29;20038;-80
2022/11/02 05:24:47;;;;;;;26.13;4.53;;;;;;;7.48;100.00;93155.56;4848722;29;20409;-80
2022/11/02 05:27:13;;;;;;;16.92;4.57;;;;;;;7.49;100.00;93159.75;4863759;29;20061;-79
2022/11/02 05:29:39;;;;;;;15.60;4.75;;;;;;;7.49;100.00;93160.53;4884437;29;20045;-79
2022/11/02 05:32:05;;;;;;;11.65;3.83;;;;;;;7.47;100.00;93159.97;4884265;29;20056;-79
2022/11/02 05:34:50;;;;;;;23.88;5.10;;;;;;;7.49;100.00;93163.13;4853740;29;20029;-80
2022/11/02 05:37:16;;;;;;;10.50;4.22;;;;;;;7.50;100.00;93169.13;4880919;29;20420;-79
2022/11/02 05:39:41;;;;;;;14.60;4.20;;;;;;;7.52;100.00;93164.47;4881243;29;20093;-80
2022/11/02 05:42:27;;;;;;;19.20;4.30;;;;;;;7.54;100.00;93164.19;4881848;29;20041;-79
2022/11/02 05:44:53;;;;;;;14.43;4.03;;;;;;;7.53;100.00;93167.84;4880965;29;20041;-80
2022/11/02 05:47:18;;;;;;;13.93;3.67;;;;;;;7.52;100.00;93172.28;4866870;29;20101;-80
2022/11/02 05:53:38;;;;;;;;;;;;;;;7.48;100.00;93166.00;4868243;29;20583;-80
2022/11/02 05:59:58;;;;;;;18.80;3.70;;;;;;;7.44;100.00;93167.53;4885261;29;20074;-80
2022/11/02 06:06:17;;;;;;;16.88;3.83;;;;;;;7.42;100.00;93172.97;4848255;29;20084;-79
2022/11/02 06:12:11;;;;;;;14.50;4.25;;;;;;;7.46;100.00;93184.47;4861354;29;20556;-80
2022/11/02 06:14:36;;;;;;;11.07;3.97;;;;;;;7.49;100.00;93189.16;4847458;29;20065;-80
2022/11/02 06:20:58;;;;;;;18.42;3.63;;;;;;;7.76;100.00;93201.34;4848314;29;20044;-79
2022/11/02 06:26:46;;;;;;;14.43;4.13;;;;;;;8.79;100.00;93210.50;4860936;29;20047;-80
2022/11/02 06:29:11;;;;;;;14.95;4.00;;;;;;;9.28;100.00;93227.56;4864642;29;20491;-80
2022/11/02 06:39:25;;;;;;;11.55;3.15;;;;;;;11.32;100.00;93222.91;4866008;29;20388;-79
2022/11/02 06:42:12;;;;;;;12.57;3.50;;;;;;;11.73;100.00;93236.50;4865856;29;20038;-80
2022/11/02 06:44:37;;;;;;;10.90;3.40;;;;;;;12.18;96.97;93231.16;4865635;29;20132;-79
2022/11/02 06:47:03;;;;;;;14.65;3.83;;;;;;;12.79;94.08;93237.59;4875224;29;20085;-79
2022/11/02 06:50:07;;;;;;;15.60;3.85;;;;;;;13.33;89.95;93229.31;4862097;29;20074;-78
2022/11/02 06:52:34;;;;;;;12.88;3.10;;;;;;;13.70;88.39;93238.25;4862944;29;20452;-78
2022/11/02 06:55:37;;;;;;;13.55;3.55;;;;;;;14.12;86.02;93244.44;4863681;29;20150;-78
2022/11/02 06:58:03;;;;;;;12.80;3.38;;;;;;;14.80;84.92;93246.69;4863293;29;20498;-79
2022/11/02 07:00:29;;;;;;;13.40;3.60;;;;;;;15.51;80.58;93239.91;4863315;29;20045;-78
2022/11/02 07:03:06;;;;;;;13.30;3.97;;;;;;;15.77;76.83;93247.28;4863519;29;20073;-77
2022/11/02 07:05:35;;;;;;;13.70;3.80;;;;;;;16.49;76.04;93251.63;4865012;29;20037;-78
2022/11/02 07:08:00;;;;;;;14.00;2.97;;;;;;;16.94;70.98;93243.59;4849243;29;20033;-78
2022/11/02 07:10:27;;;;;;;11.38;3.55;;;;;;;17.54;72.23;93244.78;4867120;29;20113;-78
2022/11/02 07:12:55;;;;;;;17.70;3.78;;;;;;;17.95;69.98;93246.22;4866550;29;20036;-78
2022/11/02 07:19:17;;;;;;;10.60;3.40;;;;;;;18.26;68.34;93255.81;4867912;29;20048;-78
2022/11/02 07:21:50;;;;;;;10.18;3.70;;;;;;;18.74;64.17;93249.47;4849077;29;20041;-78
2022/11/02 07:24:16;;;;;;;11.45;3.50;;;;;;;19.46;61.73;93241.63;4857963;29;20095;-79
2022/11/02 07:26:42;;;;;;;13.98;3.25;;;;;;;20.01;62.05;93269.06;4845145;29;20032;-78
2022/11/02 07:29:09;;;;;;;11.65;3.35;;;;;;;19.72;60.04;93244.91;4846002;29;20038;-78
2022/11/02 07:31:35;;;;;;;12.10;3.97;;;;;;;19.65;58.69;93260.53;4844356;29;20025;-79
2022/11/02 07:34:38;;;;;;;17.20;3.60;;;;;;;20.24;59.30;93264.94;4830319;29;20411;-78
2022/11/02 07:37:04;;;;;;;10.80;3.10;;;;;;;20.42;56.38;93252.25;4846551;29;20054;-80
2022/11/02 07:39:30;;;;;;;10.30;2.92;;;;;;;20.73;55.81;93256.31;4845864;29;20046;-79
2022/11/02 07:41:56;;;;;;;10.73;3.10;;;;;;;21.07;53.92;93246.38;4844599;29;20045;-78
2022/11/02 07:45:03;;;;;;;11.77;3.53;;;;;;;21.78;52.01;93269.84;4866929;29;20037;-80
2022/11/02 07:47:29;;;;;;;12.77;3.63;;;;;;;21.83;49.08;93229.63;4881506;29;20407;-80
2022/11/02 07:49:57;;;;;;;9.13;3.00;;;;;;;22.10;45.41;93235.31;4865532;29;20116;-79
2022/11/02 07:52:24;;;;;;;12.82;3.20;;;;;;;21.26;50.38;93265.25;4881872;29;20041;-81
2022/11/02 07:54:50;;;;;;;11.02;4.10;;;;;;;21.11;51.75;93237.38;4881148;29;20052;-79
2022/11/02 07:57:15;;;;;;;11.40;3.42;;;;;;;20.64;54.06;93271.63;4881900;29;20136;-79
2022/11/02 08:03:08;;;;;;;14.38;3.78;;;;;;;21.08;54.75;93258.59;4881223;29;20055;-81
2022/11/02 08:05:36;;;;;;;11.18;3.67;;;;;;;21.56;52.04;93268.44;4863554;29;20030;-80
2022/11/02 08:08:13;;;;;;;11.73;4.00;;;;;;;20.78;52.87;93240.94;4846563;29;20030;-78
2022/11/02 08:10:39;;;;;;;11.35;3.30;;;;;;;20.44;53.12;93273.97;4861125;29;20042;-77
2022/11/02 08:13:06;;;;;;;10.63;2.92;;;;;;;20.34;53.03;93274.38;4852871;29;20069;-78
2022/11/02 08:15:31;;;;;;;9.13;2.95;;;;;;;20.16;53.47;93279.09;4866182;29;20437;-78
2022/11/02 08:18:04;;;;;;;12.80;3.15;;;;;;;20.36;53.71;93270.28;4864939;29;20049;-77
2022/11/02 08:20:30;;;;;;;11.38;3.33;;;;;;;20.37;53.12;93279.81;4871008;29;20043;-78
2022/11/02 08:22:56;;;;;;;16.50;3.65;;;;;;;20.30;52.06;93274.25;4852490;29;20063;-77
2022/11/02 08:25:22;;;;;;;14.55;2.88;;;;;;;20.37;52.68;93274.50;4862617;29;20037;-77
2022/11/02 08:27:47;;;;;;;7.00;2.75;;;;;;;20.53;52.88;93279.97;4850496;29;20037;-77
2022/11/02 08:30:13;;;;;;;9.10;2.83;;;;;;;20.52;52.39;93277.66;4858922;29;20080;-77
2022/11/02 08:32:40;;;;;;;13.40;3.30;;;;;;;20.60;51.08;93279.47;4845528;29;20109;-76
2022/11/02 08:35:25;;;;;;;12.98;4.18;;;;;;;19.96;58.82;93285.97;4856253;29;20105;-78
2022/11/02 08:37:54;;;;;;;12.52;4.30;;;;;;;19.42;60.01;93275.22;4864523;29;20385;-79
2022/11/02 08:40:20;;;;;;;10.98;3.90;;;;;;;18.64;62.54;93279.75;4864429;29;20029;-77
2022/11/02 08:42:45;;;;;;;12.00;4.28;;;;;;;17.97;66.35;93273.19;4861045;29;20169;-78
2022/11/02 08:45:11;;;;;;;18.45;4.22;;;;;;;17.87;68.18;93270.81;4860871;29;20087;-78
2022/11/02 08:47:40;;;;;;;15.43;4.30;;;;;;;17.78;68.45;93277.97;4845954;29;20121;-77
2022/11/02 08:50:07;;;;;;;12.10;3.45;;;;;;;17.59;67.97;93263.16;4861174;29;20052;-77
2022/11/02 08:52:37;;;;;;;15.82;4.22;;;;;;;17.60;68.26;93269.22;4861881;29;20551;-77
2022/11/02 08:55:03;;;;;;;11.50;3.67;;;;;;;17.07;70.87;93265.72;4845408;29;20034;-77
2022/11/02 08:57:28;;;;;;;12.57;3.70;;;;;;;17.28;69.48;93266.69;4842042;29;20040;-77
2022/11/02 08:59:55;;;;;;;10.93;3.97;;;;;;;16.77;71.84;93262.00;4857494;29;20045;-77
2022/11/02 09:02:20;;;;;;;13.18;3.80;;;;;;;17.05;70.20;93263.38;4843832;29;20054;-77
2022/11/02 09:04:48;;;;;;;9.60;3.67;;;;;;;16.61;70.88;93258.97;4813721;29;20034;-78
2022/11/02 09:07:14;;;;;;;14.90;4.05;;;;;;;16.26;73.40;93258.81;4845680;29;20042;-77
2022/11/02 09:09:40;;;;;;;17.05;4.75;;;;;;;16.14;75.36;93248.78;4845506;29;20050;-77
2022/11/02 09:12:06;;;;;;;15.15;4.65;;;;;;;16.00;77.48;93248.84;4845136;29;20029;-77
2022/11/02 09:14:51;;;;;;;21.75;5.97;;;;;;;15.54;81.79;93257.81;4845062;29;20576;-77
2022/11/02 09:17:17;;;;;;;15.98;4.80;;;;;;;15.57;79.39;93251.16;4861469;29;20053;-78
2022/11/02 09:19:42;;;;;;;13.32;4.80;;;;;;;15.39;84.29;93253.63;4858896;29;20477;-77
2022/11/02 09:22:32;;;;;;;18.45;4.30;;;;;;;15.47;77.49;93257.44;4859369;29;20497;-77
2022/11/02 09:24:57;;;;;;;9.30;4.30;;;;;;;15.75;78.39;93244.19;4844592;29;20092;-77
2022/11/02 09:27:25;;;;;;;16.23;3.55;;;;;;;15.65;76.86;93254.91;4858997;29;20441;-76
2022/11/02 09:29:50;;;;;;;16.88;4.43;;;;;;;15.80;77.57;93241.41;4828209;29;20053;-77
2022/11/02 09:32:16;;;;;;;13.30;4.68;;;;;;;15.59;79.18;93241.06;4858644;29;20053;-77
2022/11/02 09:34:44;;;;;;;16.48;4.15;;;;;;;15.39;80.38;93245.72;4843470;29;20113;-77
2022/11/02 09:37:10;;;;;;;22.42;5.57;;;;;;;15.52;81.24;93243.34;4858503;29;20070;-77
2022/11/02 09:39:35;;;;;;;15.90;3.75;;;;;;;15.33;79.25;93243.47;4842938;29;20049;-77
2022/11/02 09:46:03;;;;;;;14.10;4.45;;;;;;;15.52;79.94;93240.72;4858781;29;20046;-77
2022/11/02 09:48:32;;;;;;;11.13;3.42;;;;;;;15.39;80.51;93245.72;4843648;29;20140;-77
2022/11/02 09:51:07;;;;;;;18.90;4.72;;;;;;;15.39;80.72;93243.06;4858347;29;20128;-77
2022/11/02 09:54:00;;;;;;;14.25;3.92;;;;;;;15.49;77.39;93241.28;4857777;29;20029;-77
2022/11/02 09:56:26;;;;;;;12.48;3.38;;;;;;;15.48;76.45;93240.50;4844439;29;20577;-78
2022/11/02 09:59:10;;;;;;;15.45;3.78;;;;;;;15.33;70.71;93243.47;4844993;29;20041;-77
2022/11/02 10:05:12;;;;;;;13.32;3.70;;;;;;;15.72;68.89;93245.56;4844863;29;20037;-78
2022/11/02 10:08:07;;;;;;;14.75;3.03;;;;;;;16.15;68.14;93244.28;4845015;29;20107;-77
2022/11/02 10:11:16;;;;;;;17.17;3.75;;;;;;;16.29;67.06;93244.22;4844238;29;20038;-77
2022/11/02 10:17:10;;;;;;;10.80;3.55;;;;;;;16.09;68.65;93237.56;4845285;29;20120;-78
2022/11/02 10:19:40;;;;;;;10.45;3.03;;;;;;;16.21;70.92;93235.94;4844586;29;20034;-77
2022/11/02 10:22:31;;;;;;;15.02;4.20;;;;;;;16.27;69.79;93233.94;4858717;29;20038;-77
2022/11/02 10:25:00;;;;;;;12.85;4.00;;;;;;;16.23;71.27;93232.97;4858336;29;20385;-77
2022/11/02 10:27:29;;;;;;;15.45;3.40;;;;;;;16.08;71.07;93236.03;4843013;29;20042;-77
2022/11/02 10:30:17;;;;;;;12.48;3.15;;;;;;;15.94;69.72;93226.31;4844701;29;20105;-78
2022/11/02 10:32:44;;;;;;;11.23;3.40;;;;;;;16.25;70.20;93222.91;4858668;29;20038;-78
2022/11/02 10:35:37;;;;;;;12.80;3.40;;;;;;;16.42;69.25;93223.00;4858576;29;20099;-77
2022/11/02 10:38:28;;;;;;;13.57;3.33;;;;;;;16.36;70.04;93229.47;4844285;29;20046;-78
2022/11/02 10:41:03;;;;;;;13.77;3.60;;;;;;;16.00;71.46;93221.66;4841703;29;20041;-77
2022/11/02 10:44:14;;;;;;;12.25;3.40;;;;;;;15.69;71.19;93217.06;4856438;29;20098;-77
2022/11/02 10:47:03;;;;;;;14.93;3.42;;;;;;;15.68;71.23;93230.59;4804117;29;20046;-76
2022/11/02 10:49:49;;;;;;;11.75;3.25;;;;;;;16.31;69.32;93224.34;4842836;29;20034;-77
2022/11/02 10:52:16;;;;;;;12.68;3.75;;;;;;;16.58;69.51;93218.06;4842743;29;20041;-77
2022/11/02 10:54:42;;;;;;;12.30;3.55;;;;;;;16.59;71.36;93208.28;4856246;29;20469;-77
2022/11/02 10:57:12;;;;;;;11.80;3.17;;;;;;;16.48;71.13;93202.47;4840299;29;20038;-77
2022/11/02 10:59:38;;;;;;;17.70;3.50;;;;;;;16.55;70.83;93204.69;4840354;29;20512;-78
2022/11/02 11:02:13;;;;;;;18.83;4.30;;;;;;;16.47;71.06;93192.22;4842188;29;20041;-78
2022/11/02 11:04:40;;;;;;;15.63;3.97;;;;;;;16.28;71.64;93192.44;4842101;29;20042;-78
2022/11/02 11:07:20;;;;;;;13.27;3.70;;;;;;;16.18;73.37;93199.56;4841397;29;20128;-78
2022/11/02 11:09:56;;;;;;;16.55;4.40;;;;;;;16.10;73.57;93197.66;4840962;29;20049;-78
2022/11/02 11:12:37;;;;;;;13.82;3.45;;;;;;;16.09;73.73;93197.97;4843115;29;20042;-78
2022/11/02 11:15:05;;;;;;;14.85;3.65;;;;;;;16.20;73.15;93186.06;4858195;29;20140;-78
2022/11/02 11:17:34;;;;;;;13.98;4.10;;;;;;;15.82;73.17;93191.72;4842676;29;20416;-78
2022/11/02 11:20:02;;;;;;;12.68;3.40;;;;;;;15.57;75.13;93180.66;4843985;29;20542;-78
2022/11/02 11:22:31;;;;;;;9.75;3.25;;;;;;;15.56;75.26;93178.34;4842065;29;20033;-77
2022/11/02 11:25:12;;;;;;;17.15;4.53;;;;;;;15.29;75.17;93179.19;4842576;29;20124;-78
2022/11/02 11:27:59;;;;;;;14.23;4.15;;;;;;;14.87;77.20;93179.31;4865748;29;20112;-78
2022/11/02 11:30:30;;;;;;;20.10;3.95;;;;;;;15.00;77.85;93169.81;4846848;29;20138;-77
2022/11/02 11:32:58;;;;;;;20.58;5.03;;;;;;;15.20;77.19;93172.00;4862940;29;20034;-78
2022/11/02 11:35:30;;;;;;;12.23;4.22;;;;;;;15.33;76.31;93169.63;4861420;29;20412;-78
2022/11/02 11:38:05;;;;;;;;;;;;;;;15.57;75.35;93178.03;4863733;29;20412;-78
2022/11/02 11:40:39;;;;;;;11.68;3.55;;;;;;;15.52;76.17;93174.75;4863641;29;19927;-78
2022/11/02 11:43:11;;;;;;;16.08;4.15;;;;;;;15.53;76.55;93168.38;4863700;29;20108;-78
2022/11/02 11:45:37;;;;;;;12.15;3.83;;;;;;;15.62;74.98;93167.34;4847611;29;20052;-78
2022/11/02 11:48:47;;;;;;;12.45;3.50;;;;;;;15.48;75.69;93160.59;4863400;29;20041;-78
2022/11/02 11:51:49;;;;;;;17.02;3.60;;;;;;;15.29;77.23;93158.91;4809807;29;20042;-78
2022/11/02 11:54:28;;;;;;;12.02;4.20;;;;;;;15.32;76.86;93160.16;4782134;29;20060;-78
2022/11/02 11:57:21;;;;;;;14.38;3.88;;;;;;;15.08;76.98;93150.66;4858252;29;20437;-79
2022/11/02 11:59:51;;;;;;;16.27;3.92;;;;;;;15.13;77.37;93150.56;4865187;29;20029;-78
2022/11/02 12:02:54;;;;;;;17.58;4.40;;;;;;;15.25;78.13;93151.88;4864285;29;20041;-78
2022/11/02 12:16:09;;;;;;;12.57;3.60;;;;;;;15.44;76.87;93144.56;4865448;29;20076;-78
2022/11/02 12:18:40;;;;;;;11.00;3.42;;;;;;;15.42;75.40;93133.53;4848258;29;20463;-78
2022/11/02 12:21:24;;;;;;;15.00;3.40;;;;;;;15.53;76.25;93142.75;4865028;29;20073;-78
2022/11/02 12:24:18;;;;;;;20.35;3.97;;;;;;;15.57;76.04;93135.81;4865473;29;20411;-78
2022/11/02 12:26:50;;;;;;;16.38;3.83;;;;;;;15.60;75.90;93129.94;4863419;29;20076;-78
2022/11/02 12:29:40;;;;;;;13.50;3.42;;;;;;;15.52;77.72;93130.66;4865137;29;20037;-78
2022/11/02 12:36:46;;;;;;;10.23;3.40;;;;;;;15.65;77.53;93117.69;4865260;29;20511;-78
2022/11/02 12:43:14;;;;;;;13.68;3.65;;;;;;;14.83;82.54;93109.03;4851653;29;20114;-78
2022/11/02 12:46:02;;;;;;;14.48;3.53;;;;;;;14.82;82.47;93110.13;4863567;29;20045;-78
2022/11/02 12:48:30;;;;;;;14.93;3.72;;;;;;;14.74;82.87;93112.34;4863826;29;20124;-78
2022/11/02 12:54:49;;;;;;;15.02;4.07;;;;;;;14.73;81.29;93089.72;4849747;29;20082;-78
2022/11/02 12:57:36;;;;;;;15.27;4.45;;;;;;;14.89;80.49;93092.03;4865217;29;20060;-78
2022/11/02 13:03:40;;;;;;;15.18;4.15;;;;;;;14.50;79.16;93088.06;4866743;29;20041;-78
2022/11/02 13:06:12;;;;;;;13.15;3.70;;;;;;;14.54;81.73;93089.84;4866210;29;20175;-78
2022/11/02 13:08:57;;;;;;;17.73;4.03;;;;;;;14.50;79.54;93088.06;4850161;29;20038;-78
2022/11/02 13:12:01;;;;;;;18.08;4.15;;;;;;;14.46;84.24;93082.63;4865453;29;20056;-78
2022/11/02 13:14:32;;;;;;;17.80;4.25;;;;;;;14.56;86.02;93089.56;4866548;29;20396;-78
2022/11/02 13:17:24;;;;;;;15.35;3.63;;;;;;;14.42;86.39;93079.03;4866627;29;20094;-78
2022/11/02 13:19:56;;;;;;;15.38;3.75;;;;;;;14.28;85.83;93084.31;4866281;29;20033;-77
2022/11/02 13:22:42;;;;;;;13.93;4.63;;;;;;;14.33;86.80;93080.78;4866356;29;20264;-78
2022/11/02 13:25:19;;;;;;;17.27;3.75;;;;;;;14.38;87.22;93072.78;4865911;29;20041;-78
2022/11/02 13:32:18;;;;;;;13.02;4.00;;;;;;;14.34;84.94;93077.88;4866654;29;20038;-78
2022/11/02 13:34:47;;;;;;;12.30;4.43;;;;;;;14.15;86.54;93070.06;4811999;29;20042;-78
2022/11/02 13:37:19;;;;;;;15.55;4.53;;;;;;;14.34;87.88;93079.72;4862916;29;20057;-78
2022/11/02 13:39:51;;;;;;;21.40;4.57;;;;;;;14.38;87.29;93080.69;4865268;29;20042;-78
2022/11/02 13:42:40;;;;;;;14.73;4.27;;;;;;;14.66;85.53;93078.81;4865051;29;20045;-78
2022/11/02 13:45:31;;;;;;;20.65;5.10;;;;;;;14.71;86.15;93070.81;4865475;29;20274;-79
2022/11/02 13:48:15;;;;;;;12.00;4.22;;;;;;;14.83;85.23;93082.69;4867137;29;20507;-78
2022/11/02 13:50:53;;;;;;;15.38;4.45;;;;;;;14.69;85.33;93078.22;4865424;29;20084;-78
2022/11/02 13:53:56;;;;;;;20.00;4.80;;;;;;;14.49;87.82;93078.63;4864775;29;20037;-78
2022/11/02 13:56:24;;;;;;;;;;;;;;;14.40;89.16;93080.41;4866186;29;20099;-78
2022/11/02 13:58:56;;;;;;;16.13;4.75;;;;;;;14.12;91.41;93077.78;4865811;29;19956;-78
2022/11/02 14:01:23;;;;;;;18.23;4.30;;;;;;;14.22;91.95;93079.44;4864837;29;20107;-78
2022/11/02 14:03:55;;;;;;;17.90;4.97;;;;;;;14.29;91.63;93085.09;4863959;29;20159;-79
2022/11/02 14:06:46;;;;;;;12.60;4.60;;;;;;;14.31;91.54;93078.44;4864998;29;20098;-78
2022/11/02 14:09:38;;;;;;;15.95;5.13;;;;;;;14.29;92.46;93075.31;4864256;29;20128;-78
2022/11/02 14:12:26;;;;;;;16.00;5.00;;;;;;;14.22;91.67;93074.94;4864839;29;20049;-78
2022/11/02 14:15:11;;;;;;;17.27;5.47;;;;;;;14.42;89.43;93081.66;4865981;29;20048;-78
2022/11/02 14:17:51;;;;;;;12.30;4.47;;;;;;;14.55;91.86;93077.47;4863771;29;20412;-78
2022/11/02 14:23:36;;;;;;;12.13;4.90;;;;;;;14.66;91.79;93084.09;4863762;29;20042;-78
2022/11/02 14:26:02;;;;;;;14.98;4.82;;;;;;;14.62;90.07;93075.22;4863669;29;20404;-78
2022/11/02 14:31:44;;;;;;;17.30;4.90;;;;;;;14.56;90.73;93079.81;4865104;29;20041;-78
2022/11/02 14:34:31;;;;;;;14.60;5.25;;;;;;;14.50;91.33;93075.72;4864902;29;20091;-78
2022/11/02 14:37:34;;;;;;;12.15;4.20;;;;;;;14.37;91.79;93082.53;4863045;29;20405;-78
2022/11/02 14:40:22;;;;;;;19.08;5.53;;;;;;;14.36;92.15;93078.38;4862117;29;20056;-79
2022/11/02 14:43:27;;;;;;;14.40;5.45;;;;;;;14.41;91.95;93082.75;4878283;29;20029;-78
2022/11/02 14:46:19;;;;;;;12.00;5.25;;;;;;;14.35;92.37;93078.66;4863412;29;20029;-78
2022/11/02 14:48:49;;;;;;;18.33;5.50;;;;;;;14.31;91.69;93075.81;4863196;29;20037;-78
2022/11/02 14:51:27;;;;;;;18.60;6.00;;;;;;;14.27;93.75;93080.09;4878058;29;20411;-78
2022/11/02 14:53:57;;;;;;;16.67;6.30;;;;;;;14.44;92.47;93070.84;4864553;29;20089;-78
2022/11/02 14:56:24;;;;;;;20.55;6.03;;;;;;;14.50;91.76;93080.16;4864058;29;20037;-78
2022/11/02 15:02:45;;;;;;;18.83;5.20;;;;;;;14.20;92.82;93068.41;4864326;29;20089;-78
2022/11/02 15:08:55;;;;;;;20.05;5.20;;;;;;;13.91;95.32;93065.00;4863667;29;20121;-78